sensor_id;sensor_type;location;lat;lon;timestamp;pressure;altitude;pressure_sealevel;temperature;humidity
7052;BME280;3567;52.444;13.556;2023-02-20T00:00:39;101795.53;;;1.62;100.00
7052;BME280;3567;52.444;13.556;2023-02-20T00:03:06;101788.59;;;1.61;100.00
7052;BME280;3567;52.444;13.556;2023-02-20T00:05:32;101786.94;;;1.60;100.00
7052;BME280;3567;52.444;13.556;2023-02-20T00:07:57;101795.00;;;1.58;100.00
7052;BME280;3567;52.444;13.556;2023-02-20T00:10:23;101794.31;;;1.56;100.00
7052;BME280;3567;52.444;13.556;2023-02-20T00:12:49;101793.59;;;1.54;100.00
7052;BME280;3567;52.444;13.556;2023-02-20T00:15:16;101786.66;;;1.53;100.00
7052;BME280;3567;52.444;13.556;2023-02-20T00:17:44;101775.28;;;1.53;100.00
7052;BME280;3567;52.444;13.556;2023-02-20T00:20:14;101780.72;;;1.51;100.00
7052;BME280;3567;52.444;13.556;2023-02-20T00:22:39;101776.69;;;1.47;100.00
7052;BME280;3567;52.444;13.556;2023-02-20T00:25:05;101777.50;;;1.48;100.00
7052;BME280;3567;52.444;13.556;2023-02-20T00:27:31;101779.31;;;1.47;100.00
7052;BME280;3567;52.444;13.556;2023-02-20T00:29:56;101771.41;;;1.47;100.00
7052;BME280;3567;52.444;13.556;2023-02-20T00:32:21;101766.13;;;1.47;100.00
7052;BME280;3567;52.444;13.556;2023-02-20T00:34:47;101765.28;;;1.47;100.00
7052;BME280;3567;52.444;13.556;2023-02-20T00:37:12;101769.75;;;1.46;100.00
7052;BME280;3567;52.444;13.556;2023-02-20T00:39:37;101752.25;;;1.45;100.00
7052;BME280;3567;52.444;13.556;2023-02-20T00:42:03;101756.53;;;1.46;100.00
7052;BME280;3567;52.444;13.556;2023-02-20T00:44:28;101750.28;;;1.47;100.00
7052;BME280;3567;52.444;13.556;2023-02-20T00:46:54;101757.22;;;1.48;100.00
7052;BME280;3567;52.444;13.556;2023-02-20T00:49:19;101751.94;;;1.48;100.00
7052;BME280;3567;52.444;13.556;2023-02-20T00:51:44;101743.19;;;1.48;100.00
7052;BME280;3567;52.444;13.556;2023-02-20T00:54:10;101752.09;;;1.47;100.00
7052;BME280;3567;52.444;13.556;2023-02-20T00:56:35;101746.97;;;1.45;100.00
7052;BME280;3567;52.444;13.556;2023-02-20T00:59:00;101748.78;;;1.45;100.00
7052;BME280;3567;52.444;13.556;2023-02-20T01:01:26;101748.91;;;1.43;100.00
7052;BME280;3567;52.444;13.556;2023-02-20T01:03:52;101745.59;;;1.41;100.00
7052;BME280;3567;52.444;13.556;2023-02-20T01:06:17;101733.38;;;1.40;100.00
7052;BME280;3567;52.444;13.556;2023-02-20T01:08:43;101728.34;;;1.37;100.00
7052;BME280;3567;52.444;13.556;2023-02-20T01:11:09;101727.69;;;1.35;100.00
7052;BME280;3567;52.444;13.556;2023-02-20T01:13:34;101726.69;;;1.36;100.00
7052;BME280;3567;52.444;13.556;2023-02-20T01:15:59;101731.00;;;1.37;100.00
7052;BME280;3567;52.444;13.556;2023-02-20T01:18:25;101721.16;;;1.39;100.00
7052;BME280;3567;52.444;13.556;2023-02-20T01:20:51;101717.22;;;1.43;100.00
7052;BME280;3567;52.444;13.556;2023-02-20T01:23:16;101723.19;;;1.45;100.00
7052;BME280;3567;52.444;13.556;2023-02-20T01:25:41;101708.03;;;1.47;100.00
7052;BME280;3567;52.444;13.556;2023-02-20T01:28:07;101705.13;;;1.50;100.00
7052;BME280;3567;52.444;13.556;2023-02-20T01:30:32;101709.97;;;1.55;100.00
7052;BME280;3567;52.444;13.556;2023-02-20T01:32:57;101712.44;;;1.56;100.00
7052;BME280;3567;52.444;13.556;2023-02-20T01:35:23;101697.16;;;1.60;100.00
7052;BME280;3567;52.444;13.556;2023-02-20T01:37:49;101696.03;;;1.63;100.00
7052;BME280;3567;52.444;13.556;2023-02-20T01:40:17;101682.66;;;1.64;100.00
7052;BME280;3567;52.444;13.556;2023-02-20T01:42:43;101681.56;;;1.67;100.00
7052;BME280;3567;52.444;13.556;2023-02-20T01:45:27;101675.13;;;1.69;100.00
7052;BME280;3567;52.444;13.556;2023-02-20T01:47:55;101661.78;;;1.71;100.00
7052;BME280;3567;52.444;13.556;2023-02-20T01:50:24;101669.56;;;1.72;100.00
7052;BME280;3567;52.444;13.556;2023-02-20T01:52:53;101668.41;;;1.75;100.00
7052;BME280;3567;52.444;13.556;2023-02-20T01:55:23;101662.84;;;1.78;100.00
7052;BME280;3567;52.444;13.556;2023-02-20T01:58:03;101632.81;;;1.79;100.00
7052;BME280;3567;52.444;13.556;2023-02-20T02:00:29;101622.25;;;1.79;100.00
7052;BME280;3567;52.444;13.556;2023-02-20T02:03:01;101616.13;;;1.78;100.00
7052;BME280;3567;52.444;13.556;2023-02-20T02:05:30;101621.59;;;1.77;100.00
7052;BME280;3567;52.444;13.556;2023-02-20T02:07:57;101621.59;;;1.77;100.00
7052;BME280;3567;52.444;13.556;2023-02-20T02:10:58;101614.75;;;1.74;100.00
7052;BME280;3567;52.444;13.556;2023-02-20T02:13:16;101613.94;;;1.74;100.00
7052;BME280;3567;52.444;13.556;2023-02-20T02:15:42;101611.28;;;1.74;100.00
7052;BME280;3567;52.444;13.556;2023-02-20T02:18:26;101615.59;;;1.75;100.00
7052;BME280;3567;52.444;13.556;2023-02-20T02:21:19;101613.50;;;1.78;100.00
7052;BME280;3567;52.444;13.556;2023-02-20T02:32:46;101608.97;;;1.89;100.00
7052;BME280;3567;52.444;13.556;2023-02-20T02:40:46;101596.53;;;1.99;100.00
7052;BME280;3567;52.444;13.556;2023-02-20T02:46:04;101589.81;;;2.04;100.00
7052;BME280;3567;52.444;13.556;2023-02-20T02:48:40;101587.00;;;2.06;100.00
7052;BME280;3567;52.444;13.556;2023-02-20T02:51:16;101568.34;;;2.07;100.00
7052;BME280;3567;52.444;13.556;2023-02-20T02:54:16;101571.34;;;2.13;100.00
7052;BME280;3567;52.444;13.556;2023-02-20T02:56:44;101562.16;;;2.17;100.00
7052;BME280;3567;52.444;13.556;2023-02-20T02:59:13;101566.97;;;2.21;100.00
7052;BME280;3567;52.444;13.556;2023-02-20T03:01:46;101561.41;;;2.24;100.00
7052;BME280;3567;52.444;13.556;2023-02-20T03:04:14;101556.47;;;2.29;100.00
7052;BME280;3567;52.444;13.556;2023-02-20T03:06:49;101560.31;;;2.35;100.00
7052;BME280;3567;52.444;13.556;2023-02-20T03:09:22;101560.69;;;2.40;100.00
7052;BME280;3567;52.444;13.556;2023-02-20T03:11:50;101550.47;;;2.45;100.00
7052;BME280;3567;52.444;13.556;2023-02-20T03:14:20;101546.38;;;2.51;100.00
7052;BME280;3567;52.444;13.556;2023-02-20T03:17:19;101531.69;;;2.56;100.00
7052;BME280;3567;52.444;13.556;2023-02-20T03:19:52;101534.69;;;2.61;100.00
7052;BME280;3567;52.444;13.556;2023-02-20T03:22:42;101527.94;;;2.67;100.00
7052;BME280;3567;52.444;13.556;2023-02-20T03:25:28;101523.03;;;2.72;100.00
7052;BME280;3567;52.444;13.556;2023-02-20T03:27:58;101524.19;;;2.78;100.00
7052;BME280;3567;52.444;13.556;2023-02-20T03:30:34;101518.28;;;2.84;100.00
7052;BME280;3567;52.444;13.556;2023-02-20T03:36:13;101500.75;;;2.91;100.00
7052;BME280;3567;52.444;13.556;2023-02-20T03:39:02;101495.00;;;2.96;100.00
7052;BME280;3567;52.444;13.556;2023-02-20T03:41:48;101484.09;;;2.99;100.00
7052;BME280;3567;52.444;13.556;2023-02-20T03:44:33;101482.78;;;3.03;100.00
7052;BME280;3567;52.444;13.556;2023-02-20T03:47:01;101485.94;;;3.06;100.00
7052;BME280;3567;52.444;13.556;2023-02-20T03:49:31;101480.31;;;3.09;100.00
7052;BME280;3567;52.444;13.556;2023-02-20T03:51:59;101479.69;;;3.15;100.00
7052;BME280;3567;52.444;13.556;2023-02-20T03:54:26;101483.50;;;3.21;100.00
7052;BME280;3567;52.444;13.556;2023-02-20T03:56:57;101489.78;;;3.28;100.00
7052;BME280;3567;52.444;13.556;2023-02-20T03:59:47;101492.59;;;3.35;100.00
7052;BME280;3567;52.444;13.556;2023-02-20T04:02:41;101497.13;;;3.42;100.00
7052;BME280;3567;52.444;13.556;2023-02-20T04:05:12;101506.22;;;3.48;100.00
7052;BME280;3567;52.444;13.556;2023-02-20T04:08:00;101509.22;;;3.53;100.00
7052;BME280;3567;52.444;13.556;2023-02-20T04:10:38;101501.59;;;3.58;100.00
7052;BME280;3567;52.444;13.556;2023-02-20T04:13:05;101493.16;;;3.63;100.00
7052;BME280;3567;52.444;13.556;2023-02-20T04:15:32;101490.03;;;3.67;100.00
7052;BME280;3567;52.444;13.556;2023-02-20T04:18:04;101485.72;;;3.75;100.00
7052;BME280;3567;52.444;13.556;2023-02-20T04:20:32;101479.09;;;3.79;100.00
7052;BME280;3567;52.444;13.556;2023-02-20T04:23:22;101469.66;;;3.84;100.00
7052;BME280;3567;52.444;13.556;2023-02-20T04:25:52;101473.47;;;3.90;100.00
7052;BME280;3567;52.444;13.556;2023-02-20T04:28:19;101450.91;;;3.94;100.00
7052;BME280;3567;52.444;13.556;2023-02-20T04:30:45;101453.06;;;3.99;100.00
7052;BME280;3567;52.444;13.556;2023-02-20T04:33:12;101460.69;;;4.02;100.00
7052;BME280;3567;52.444;13.556;2023-02-20T04:35:38;101448.91;;;4.04;100.00
7052;BME280;3567;52.444;13.556;2023-02-20T04:38:04;101444.94;;;4.08;100.00
7052;BME280;3567;52.444;13.556;2023-02-20T04:40:29;101447.91;;;4.13;100.00
7052;BME280;3567;52.444;13.556;2023-02-20T04:42:54;101439.44;;;4.18;100.00
7052;BME280;3567;52.444;13.556;2023-02-20T04:45:20;101444.44;;;4.21;100.00
7052;BME280;3567;52.444;13.556;2023-02-20T04:47:45;101444.88;;;4.25;100.00
7052;BME280;3567;52.444;13.556;2023-02-20T04:50:19;101428.66;;;4.28;100.00
7052;BME280;3567;52.444;13.556;2023-02-20T04:52:44;101425.66;;;4.31;100.00
7052;BME280;3567;52.444;13.556;2023-02-20T04:55:10;101431.44;;;4.34;100.00
7052;BME280;3567;52.444;13.556;2023-02-20T04:57:35;101431.25;;;4.36;100.00
7052;BME280;3567;52.444;13.556;2023-02-20T05:00:00;101416.66;;;4.40;100.00
7052;BME280;3567;52.444;13.556;2023-02-20T05:02:26;101408.38;;;4.43;100.00
7052;BME280;3567;52.444;13.556;2023-02-20T05:04:51;101402.91;;;4.44;100.00
7052;BME280;3567;52.444;13.556;2023-02-20T05:07:17;101400.75;;;4.48;100.00
7052;BME280;3567;52.444;13.556;2023-02-20T05:09:42;101396.91;;;4.51;100.00
7052;BME280;3567;52.444;13.556;2023-02-20T05:12:08;101393.09;;;4.53;100.00
7052;BME280;3567;52.444;13.556;2023-02-20T05:14:34;101384.13;;;4.54;100.00
7052;BME280;3567;52.444;13.556;2023-02-20T05:16:59;101382.78;;;4.58;100.00
7052;BME280;3567;52.444;13.556;2023-02-20T05:19:25;101364.84;;;4.60;100.00
7052;BME280;3567;52.444;13.556;2023-02-20T05:21:50;101361.84;;;4.63;100.00
7052;BME280;3567;52.444;13.556;2023-02-20T05:24:34;101359.84;;;4.65;100.00
7052;BME280;3567;52.444;13.556;2023-02-20T05:26:59;101361.50;;;4.66;100.00
7052;BME280;3567;52.444;13.556;2023-02-20T05:29:25;101363.00;;;4.69;100.00
7052;BME280;3567;52.444;13.556;2023-02-20T05:31:50;101365.47;;;4.70;100.00
7052;BME280;3567;52.444;13.556;2023-02-20T05:34:16;101365.94;;;4.74;100.00
7052;BME280;3567;52.444;13.556;2023-02-20T05:36:41;101363.94;;;4.76;100.00
7052;BME280;3567;52.444;13.556;2023-02-20T05:39:06;101365.59;;;4.77;100.00
7052;BME280;3567;52.444;13.556;2023-02-20T05:41:32;101365.41;;;4.79;100.00
7052;BME280;3567;52.444;13.556;2023-02-20T05:43:57;101367.22;;;4.78;100.00
7052;BME280;3567;52.444;13.556;2023-02-20T05:46:24;101353.81;;;4.80;100.00
7052;BME280;3567;52.444;13.556;2023-02-20T05:48:51;101359.94;;;4.80;100.00
7052;BME280;3567;52.444;13.556;2023-02-20T05:51:21;101355.78;;;4.78;100.00
7052;BME280;3567;52.444;13.556;2023-02-20T05:53:46;101352.94;;;4.79;100.00
7052;BME280;3567;52.444;13.556;2023-02-20T05:56:12;101348.50;;;4.80;100.00
7052;BME280;3567;52.444;13.556;2023-02-20T05:58:37;101345.00;;;4.79;100.00
7052;BME280;3567;52.444;13.556;2023-02-20T06:01:03;101341.50;;;4.79;100.00
7052;BME280;3567;52.444;13.556;2023-02-20T06:03:28;101344.34;;;4.77;100.00
7052;BME280;3567;52.444;13.556;2023-02-20T06:05:53;101332.28;;;4.75;100.00
7052;BME280;3567;52.444;13.556;2023-02-20T06:08:20;101325.47;;;4.72;100.00
7052;BME280;3567;52.444;13.556;2023-02-20T06:10:46;101313.41;;;4.69;100.00
7052;BME280;3567;52.444;13.556;2023-02-20T06:13:11;101310.75;;;4.69;100.00
7052;BME280;3567;52.444;13.556;2023-02-20T06:15:37;101315.22;;;4.69;100.00
7052;BME280;3567;52.444;13.556;2023-02-20T06:18:02;101302.13;;;4.67;100.00
7052;BME280;3567;52.444;13.556;2023-02-20T06:20:27;101289.50;;;4.69;100.00
7052;BME280;3567;52.444;13.556;2023-02-20T06:22:53;101285.66;;;4.72;100.00
7052;BME280;3567;52.444;13.556;2023-02-20T06:25:18;101284.84;;;4.71;100.00
7052;BME280;3567;52.444;13.556;2023-02-20T06:27:44;101289.97;;;4.73;100.00
7052;BME280;3567;52.444;13.556;2023-02-20T06:30:09;101287.97;;;4.75;100.00
7052;BME280;3567;52.444;13.556;2023-02-20T06:32:35;101295.41;;;4.80;100.00
7052;BME280;3567;52.444;13.556;2023-02-20T06:35:00;101291.75;;;4.81;100.00
7052;BME280;3567;52.444;13.556;2023-02-20T06:37:26;101295.22;;;4.81;100.00
7052;BME280;3567;52.444;13.556;2023-02-20T06:39:51;101288.91;;;4.82;100.00
7052;BME280;3567;52.444;13.556;2023-02-20T06:42:16;101286.25;;;4.82;100.00
7052;BME280;3567;52.444;13.556;2023-02-20T06:44:42;101285.09;;;4.85;100.00
7052;BME280;3567;52.444;13.556;2023-02-20T06:47:07;101282.25;;;4.86;100.00
7052;BME280;3567;52.444;13.556;2023-02-20T06:49:37;101269.81;;;4.87;100.00
7052;BME280;3567;52.444;13.556;2023-02-20T06:52:04;101287.38;;;4.88;100.00
7052;BME280;3567;52.444;13.556;2023-02-20T06:54:30;101285.53;;;4.88;100.00
7052;BME280;3567;52.444;13.556;2023-02-20T06:56:55;101275.13;;;4.87;100.00
7052;BME280;3567;52.444;13.556;2023-02-20T06:59:21;101266.13;;;4.88;100.00
7052;BME280;3567;52.444;13.556;2023-02-20T07:01:47;101259.81;;;4.89;100.00
7052;BME280;3567;52.444;13.556;2023-02-20T07:04:16;101273.75;;;4.91;100.00
7052;BME280;3567;52.444;13.556;2023-02-20T07:06:42;101269.09;;;4.93;100.00
7052;BME280;3567;52.444;13.556;2023-02-20T07:09:08;101272.22;;;4.96;100.00
7052;BME280;3567;52.444;13.556;2023-02-20T07:11:33;101266.19;;;5.03;100.00
7052;BME280;3567;52.444;13.556;2023-02-20T07:13:58;101257.03;;;5.05;100.00
7052;BME280;3567;52.444;13.556;2023-02-20T07:16:24;101253.22;;;5.08;100.00
7052;BME280;3567;52.444;13.556;2023-02-20T07:18:49;101243.03;;;5.11;100.00
7052;BME280;3567;52.444;13.556;2023-02-20T07:21:15;101197.72;;;5.13;100.00
7052;BME280;3567;52.444;13.556;2023-02-20T07:23:41;101232.69;;;5.16;100.00
7052;BME280;3567;52.444;13.556;2023-02-20T07:26:19;101230.69;;;5.18;100.00
7052;BME280;3567;52.444;13.556;2023-02-20T07:28:44;101240.94;;;5.21;100.00
7052;BME280;3567;52.444;13.556;2023-02-20T07:31:10;101235.28;;;5.24;100.00
7052;BME280;3567;52.444;13.556;2023-02-20T07:33:35;101226.09;;;5.27;100.00
7052;BME280;3567;52.444;13.556;2023-02-20T07:36:02;101228.59;;;5.29;100.00
7052;BME280;3567;52.444;13.556;2023-02-20T07:38:27;101250.50;;;5.31;100.00
7052;BME280;3567;52.444;13.556;2023-02-20T07:40:52;101234.19;;;5.34;100.00
7052;BME280;3567;52.444;13.556;2023-02-20T07:43:18;101233.81;;;5.37;100.00
7052;BME280;3567;52.444;13.556;2023-02-20T07:45:43;101237.97;;;5.39;100.00
7052;BME280;3567;52.444;13.556;2023-02-20T07:48:09;101224.47;;;5.41;100.00
7052;BME280;3567;52.444;13.556;2023-02-20T07:50:34;101216.16;;;5.44;100.00
7052;BME280;3567;52.444;13.556;2023-02-20T07:52:59;101211.47;;;5.46;100.00
7052;BME280;3567;52.444;13.556;2023-02-20T07:55:25;101218.25;;;5.48;100.00
7052;BME280;3567;52.444;13.556;2023-02-20T07:57:50;101200.31;;;5.50;100.00
7052;BME280;3567;52.444;13.556;2023-02-20T08:00:19;101192.81;;;5.54;100.00
7052;BME280;3567;52.444;13.556;2023-02-20T08:02:45;101196.09;;;5.56;100.00
7052;BME280;3567;52.444;13.556;2023-02-20T08:05:11;101197.53;;;5.59;100.00
7052;BME280;3567;52.444;13.556;2023-02-20T08:07:36;101199.38;;;5.58;100.00
7052;BME280;3567;52.444;13.556;2023-02-20T08:10:02;101215.78;;;5.62;100.00
7052;BME280;3567;52.444;13.556;2023-02-20T08:12:28;101189.28;;;5.68;100.00
7052;BME280;3567;52.444;13.556;2023-02-20T08:14:53;101177.47;;;5.71;100.00
7052;BME280;3567;52.444;13.556;2023-02-20T08:17:19;101173.59;;;5.73;100.00
7052;BME280;3567;52.444;13.556;2023-02-20T08:19:44;101160.13;;;5.75;100.00
7052;BME280;3567;52.444;13.556;2023-02-20T08:22:10;101171.22;;;5.78;100.00
7052;BME280;3567;52.444;13.556;2023-02-20T08:24:35;101153.06;;;5.82;100.00
7052;BME280;3567;52.444;13.556;2023-02-20T08:27:00;101157.16;;;5.85;100.00
7052;BME280;3567;52.444;13.556;2023-02-20T08:29:26;101149.47;;;5.90;100.00
7052;BME280;3567;52.444;13.556;2023-02-20T08:31:51;101143.00;;;5.92;100.00
7052;BME280;3567;52.444;13.556;2023-02-20T08:34:17;101136.91;;;5.98;100.00
7052;BME280;3567;52.444;13.556;2023-02-20T08:36:42;101137.38;;;6.02;100.00
7052;BME280;3567;52.444;13.556;2023-02-20T08:39:08;101134.13;;;6.07;100.00
7052;BME280;3567;52.444;13.556;2023-02-20T08:41:33;101124.56;;;6.12;100.00
7052;BME280;3567;52.444;13.556;2023-02-20T08:43:58;101121.53;;;6.15;100.00
7052;BME280;3567;52.444;13.556;2023-02-20T08:46:24;101112.59;;;6.23;100.00
7052;BME280;3567;52.444;13.556;2023-02-20T08:48:49;101109.34;;;6.27;100.00
7052;BME280;3567;52.444;13.556;2023-02-20T08:51:18;101113.84;;;6.27;100.00
7052;BME280;3567;52.444;13.556;2023-02-20T08:53:44;101100.44;;;6.35;100.00
7052;BME280;3567;52.444;13.556;2023-02-20T08:56:09;101086.97;;;6.43;100.00
7052;BME280;3567;52.444;13.556;2023-02-20T08:58:37;101086.19;;;6.49;100.00
7052;BME280;3567;52.444;13.556;2023-02-20T09:01:02;101087.69;;;6.52;100.00
7052;BME280;3567;52.444;13.556;2023-02-20T09:03:31;101081.56;;;6.58;100.00
7052;BME280;3567;52.444;13.556;2023-02-20T09:05:58;101076.13;;;6.66;100.00
7052;BME280;3567;52.444;13.556;2023-02-20T09:08:24;101071.84;;;6.72;100.00
7052;BME280;3567;52.444;13.556;2023-02-20T09:10:49;101058.56;;;6.78;100.00
7052;BME280;3567;52.444;13.556;2023-02-20T09:13:14;101052.09;;;6.88;100.00
7052;BME280;3567;52.444;13.556;2023-02-20T09:15:40;101044.94;;;6.95;100.00
7052;BME280;3567;52.444;13.556;2023-02-20T09:18:06;101046.59;;;7.02;100.00
7052;BME280;3567;52.444;13.556;2023-02-20T09:20:34;101044.81;;;7.09;100.00
7052;BME280;3567;52.444;13.556;2023-02-20T09:23:00;101033.16;;;7.24;100.00
7052;BME280;3567;52.444;13.556;2023-02-20T09:25:25;101036.72;;;7.31;100.00
7052;BME280;3567;52.444;13.556;2023-02-20T09:27:51;101019.31;;;7.42;99.80
7052;BME280;3567;52.444;13.556;2023-02-20T09:30:18;101011.75;;;7.52;97.03
7052;BME280;3567;52.444;13.556;2023-02-20T09:32:45;100992.91;;;7.60;96.31
7052;BME280;3567;52.444;13.556;2023-02-20T09:35:16;100992.06;;;7.66;93.57
7052;BME280;3567;52.444;13.556;2023-02-20T09:37:42;100995.59;;;7.73;93.47
7052;BME280;3567;52.444;13.556;2023-02-20T09:40:09;100994.56;;;7.81;93.29
7052;BME280;3567;52.444;13.556;2023-02-20T09:46:17;100995.19;;;7.90;91.65
7052;BME280;3567;52.444;13.556;2023-02-20T09:49:01;100978.38;;;7.96;90.88
7052;BME280;3567;52.444;13.556;2023-02-20T09:51:38;100953.94;;;8.05;91.55
7052;BME280;3567;52.444;13.556;2023-02-20T09:54:18;100973.00;;;8.09;88.88
7052;BME280;3567;52.444;13.556;2023-02-20T09:56:53;100949.19;;;8.14;90.66
7052;BME280;3567;52.444;13.556;2023-02-20T09:59:27;100954.34;;;8.16;89.22
7052;BME280;3567;52.444;13.556;2023-02-20T10:02:00;100958.84;;;8.22;89.10
7052;BME280;3567;52.444;13.556;2023-02-20T10:04:35;100942.84;;;8.28;89.86
7052;BME280;3567;52.444;13.556;2023-02-20T10:07:15;100931.31;;;8.34;88.27
7052;BME280;3567;52.444;13.556;2023-02-20T10:09:42;100949.19;;;8.40;88.51
7052;BME280;3567;52.444;13.556;2023-02-20T10:15:17;100943.59;;;8.62;87.77
7052;BME280;3567;52.444;13.556;2023-02-20T10:23:28;100934.47;;;8.83;84.02
7052;BME280;3567;52.444;13.556;2023-02-20T10:26:01;100937.78;;;8.85;83.51
7052;BME280;3567;52.444;13.556;2023-02-20T10:28:29;100928.28;;;8.89;84.94
7052;BME280;3567;52.444;13.556;2023-02-20T10:30:56;100926.41;;;8.96;84.57
7052;BME280;3567;52.444;13.556;2023-02-20T10:33:37;100921.81;;;9.10;83.09
7052;BME280;3567;52.444;13.556;2023-02-20T10:38:41;100904.03;;;9.29;83.40
7052;BME280;3567;52.444;13.556;2023-02-20T10:41:18;100916.91;;;9.38;82.85
7052;BME280;3567;52.444;13.556;2023-02-20T10:44:38;100901.03;;;9.43;81.22
7052;BME280;3567;52.444;13.556;2023-02-20T10:49:40;100917.22;;;9.55;81.40
7052;BME280;3567;52.444;13.556;2023-02-20T10:52:09;100898.88;;;9.59;80.50
7052;BME280;3567;52.444;13.556;2023-02-20T10:54:40;100910.41;;;9.59;80.80
7052;BME280;3567;52.444;13.556;2023-02-20T10:59:56;100877.78;;;9.69;80.90
7052;BME280;3567;52.444;13.556;2023-02-20T11:02:31;100875.97;;;9.69;80.37
7052;BME280;3567;52.444;13.556;2023-02-20T11:05:02;100877.78;;;9.69;80.08
7052;BME280;3567;52.444;13.556;2023-02-20T11:07:30;100873.06;;;9.71;80.65
7052;BME280;3567;52.444;13.556;2023-02-20T11:09:55;100879.38;;;9.77;80.59
7052;BME280;3567;52.444;13.556;2023-02-20T11:12:36;100859.84;;;9.76;80.73
7052;BME280;3567;52.444;13.556;2023-02-20T11:15:17;100860.88;;;9.75;80.49
7052;BME280;3567;52.444;13.556;2023-02-20T11:17:43;100857.75;;;9.78;81.16
7052;BME280;3567;52.444;13.556;2023-02-20T11:22:55;100886.13;;;9.79;81.90
7052;BME280;3567;52.444;13.556;2023-02-20T11:25:35;100876.31;;;9.73;81.13
7052;BME280;3567;52.444;13.556;2023-02-20T11:28:16;100878.41;;;9.71;81.64
7052;BME280;3567;52.444;13.556;2023-02-20T11:30:45;100881.66;;;9.73;82.59
7052;BME280;3567;52.444;13.556;2023-02-20T11:33:17;100873.22;;;9.76;82.64
7052;BME280;3567;52.444;13.556;2023-02-20T11:35:44;100873.41;;;9.75;82.48
7052;BME280;3567;52.444;13.556;2023-02-20T11:40:41;100859.91;;;9.69;82.58
7052;BME280;3567;52.444;13.556;2023-02-20T11:43:18;100858.88;;;9.70;82.18
7052;BME280;3567;52.444;13.556;2023-02-20T11:45:45;100867.63;;;9.78;83.55
7052;BME280;3567;52.444;13.556;2023-02-20T11:48:16;100861.47;;;9.77;82.90
7052;BME280;3567;52.444;13.556;2023-02-20T11:50:59;100870.69;;;9.81;83.69
7052;BME280;3567;52.444;13.556;2023-02-20T11:53:30;100868.03;;;9.81;82.80
7052;BME280;3567;52.444;13.556;2023-02-20T11:56:14;100852.78;;;9.82;82.78
7052;BME280;3567;52.444;13.556;2023-02-20T11:58:41;100850.28;;;9.87;83.56
7052;BME280;3567;52.444;13.556;2023-02-20T12:01:11;100849.00;;;9.89;84.10
7052;BME280;3567;52.444;13.556;2023-02-20T12:03:57;100845.50;;;9.89;83.46
7052;BME280;3567;52.444;13.556;2023-02-20T12:06:40;100859.13;;;9.87;83.86
7052;BME280;3567;52.444;13.556;2023-02-20T12:09:10;100857.47;;;9.86;84.09
7052;BME280;3567;52.444;13.556;2023-02-20T12:11:38;100851.91;;;9.88;84.51
7052;BME280;3567;52.444;13.556;2023-02-20T12:14:08;100855.38;;;9.88;84.82
7052;BME280;3567;52.444;13.556;2023-02-20T12:19:55;100846.31;;;9.89;85.31
7052;BME280;3567;52.444;13.556;2023-02-20T12:22:21;100834.56;;;9.90;85.77
7052;BME280;3567;52.444;13.556;2023-02-20T12:25:17;100845.66;;;9.94;85.74
7052;BME280;3567;52.444;13.556;2023-02-20T12:38:58;100823.31;;;10.07;86.12
7052;BME280;3567;52.444;13.556;2023-02-20T12:55:06;100816.28;;;10.06;87.15
7052;BME280;3567;52.444;13.556;2023-02-20T13:02:50;100831.19;;;10.02;88.00
7052;BME280;3567;52.444;13.556;2023-02-20T13:05:22;100832.91;;;9.96;88.83
7052;BME280;3567;52.444;13.556;2023-02-20T13:08:04;100836.00;;;9.93;89.18
7052;BME280;3567;52.444;13.556;2023-02-20T13:10:34;100836.22;;;9.91;89.63
7052;BME280;3567;52.444;13.556;2023-02-20T13:13:10;100842.00;;;9.88;90.37
7052;BME280;3567;52.444;13.556;2023-02-20T13:16:01;100848.25;;;9.82;91.85
7052;BME280;3567;52.444;13.556;2023-02-20T13:18:49;100838.44;;;9.76;92.24
7052;BME280;3567;52.444;13.556;2023-02-20T13:21:18;100840.94;;;9.71;92.42
7052;BME280;3567;52.444;13.556;2023-02-20T13:23:46;100842.03;;;9.63;93.23
7052;BME280;3567;52.444;13.556;2023-02-20T13:29:24;100830.81;;;9.55;94.20
7052;BME280;3567;52.444;13.556;2023-02-20T13:32:00;100825.53;;;9.48;94.91
7052;BME280;3567;52.444;13.556;2023-02-20T13:34:29;100841.78;;;9.47;95.01
7052;BME280;3567;52.444;13.556;2023-02-20T13:36:56;100827.19;;;9.42;95.45
7052;BME280;3567;52.444;13.556;2023-02-20T13:47:00;100841.72;;;9.28;96.59
7052;BME280;3567;52.444;13.556;2023-02-20T13:55:01;100844.88;;;9.18;97.57
7052;BME280;3567;52.444;13.556;2023-02-20T13:57:31;100848.78;;;9.16;97.93
7052;BME280;3567;52.444;13.556;2023-02-20T14:00:01;100844.28;;;9.16;97.44
7052;BME280;3567;52.444;13.556;2023-02-20T14:02:27;100850.44;;;9.17;98.09
7052;BME280;3567;52.444;13.556;2023-02-20T14:05:03;100857.03;;;9.14;97.91
7052;BME280;3567;52.444;13.556;2023-02-20T14:07:37;100854.56;;;9.13;98.62
7052;BME280;3567;52.444;13.556;2023-02-20T14:10:37;100847.16;;;9.15;98.81
7052;BME280;3567;52.444;13.556;2023-02-20T14:13:05;100857.84;;;9.15;98.42
7052;BME280;3567;52.444;13.556;2023-02-20T14:15:55;100856.22;;;9.14;98.71
7052;BME280;3567;52.444;13.556;2023-02-20T14:18:26;100855.16;;;9.15;98.81
7052;BME280;3567;52.444;13.556;2023-02-20T14:21:03;100836.91;;;9.12;98.91
7052;BME280;3567;52.444;13.556;2023-02-20T14:23:32;100863.41;;;9.13;98.85
7052;BME280;3567;52.444;13.556;2023-02-20T14:26:02;100855.63;;;9.12;98.58
7052;BME280;3567;52.444;13.556;2023-02-20T14:28:30;100842.69;;;9.09;98.93
7052;BME280;3567;52.444;13.556;2023-02-20T14:34:00;100854.00;;;9.11;98.58
7052;BME280;3567;52.444;13.556;2023-02-20T14:36:44;100859.34;;;9.11;98.72
7052;BME280;3567;52.444;13.556;2023-02-20T14:41:38;100854.81;;;9.11;98.61
7052;BME280;3567;52.444;13.556;2023-02-20T14:44:14;100859.69;;;9.14;97.84
7052;BME280;3567;52.444;13.556;2023-02-20T14:46:43;100874.91;;;9.14;97.40
7052;BME280;3567;52.444;13.556;2023-02-20T14:49:15;100871.81;;;9.17;97.21
7052;BME280;3567;52.444;13.556;2023-02-20T14:51:42;100874.50;;;9.17;97.85
7052;BME280;3567;52.444;13.556;2023-02-20T14:54:24;100872.19;;;9.21;96.92
7052;BME280;3567;52.444;13.556;2023-02-20T14:56:54;100861.72;;;9.19;97.40